Time;durP1;ratioP1;P1;durP2;ratioP2;P2;SDS_P1;SDS_P2;PMS_P1;PMS_P2;Temp;Humidity;BMP_temperature;BMP_pressure;BME280_temperature;BME280_humidity;BME280_pressure;Samples;Min_cycle;Max_cycle;Signal;HPM_P1;HPM_P2
2023/04/03 00:00:28;;;;;;;16.25;9.15;;;;;;;4.05;68.88;101151.13;5062280;28;20033;-77
2023/04/03 00:02:53;;;;;;;17.08;10.07;;;;;;;3.97;68.55;101150.19;5061818;28;20039;-77
2023/04/03 00:05:19;;;;;;;16.45;10.27;;;;;;;3.99;68.86;101150.00;5061587;28;20090;-77
2023/04/03 00:07:44;;;;;;;22.70;12.10;;;;;;;3.98;68.59;101156.44;5062288;28;20086;-77
2023/04/03 00:10:09;;;;;;;20.67;12.18;;;;;;;3.97;68.69;101155.59;5061363;28;20063;-77
2023/04/03 00:12:35;;;;;;;17.15;10.48;;;;;;;3.95;68.96;101159.50;5061749;28;20038;-77
2023/04/03 00:15:00;;;;;;;17.15;10.65;;;;;;;3.92;68.64;101158.03;5062103;28;20051;-77
2023/04/03 00:17:25;;;;;;;18.38;10.27;;;;;;;3.89;68.61;101162.94;5061453;28;21095;-76
2023/04/03 00:19:51;;;;;;;21.42;10.75;;;;;;;3.71;69.12;101164.13;5062237;28;20031;-77
2023/04/03 00:22:16;;;;;;;18.45;10.18;;;;;;;3.83;69.66;101149.19;5061191;28;20036;-77
2023/04/03 00:24:41;;;;;;;23.15;10.82;;;;;;;3.82;69.28;101152.06;5061850;28;20039;-77
2023/04/03 00:27:07;;;;;;;21.80;11.10;;;;;;;3.80;68.95;101154.97;5061265;28;20040;-76
2023/04/03 00:29:32;;;;;;;23.08;10.43;;;;;;;3.74;69.17;101161.09;5061994;28;20093;-76
2023/04/03 00:31:57;;;;;;;18.38;11.13;;;;;;;3.73;68.61;101159.41;5061893;28;20514;-78
2023/04/03 00:34:22;;;;;;;21.45;11.90;;;;;;;3.72;68.74;101152.34;5061157;28;20082;-76
2023/04/03 00:36:48;;;;;;;13.73;10.13;;;;;;;3.74;68.51;101155.69;5061826;28;20024;-76
2023/04/03 00:39:13;;;;;;;14.65;10.00;;;;;;;3.75;68.65;101157.34;5061139;28;20059;-77
2023/04/03 00:41:38;;;;;;;23.70;10.45;;;;;;;3.70;68.88;101154.38;5061350;28;20884;-77
2023/04/03 00:44:21;;;;;;;17.73;9.40;;;;;;;3.69;68.90;101168.88;5060518;28;20036;-77
2023/04/03 00:46:46;;;;;;;20.70;10.75;;;;;;;3.66;68.65;101163.88;5061695;28;20036;-77
2023/04/03 00:49:11;;;;;;;17.47;10.70;;;;;;;3.67;69.08;101168.22;5061003;28;20829;-77
2023/04/03 00:51:37;;;;;;;18.17;8.40;;;;;;;3.67;69.17;101165.53;5061233;28;20280;-77
2023/04/03 00:54:06;;;;;;;15.75;11.05;;;;;;;3.63;69.27;101167.75;5060610;28;20043;-77
2023/04/03 00:56:32;;;;;;;17.45;10.60;;;;;;;3.61;68.93;101164.41;5061643;28;20028;-78
2023/04/03 00:59:21;;;;;;;29.60;11.93;;;;;;;3.63;68.60;101173.16;5060884;28;20450;-77
2023/04/03 01:01:48;;;;;;;16.98;10.90;;;;;;;3.60;69.09;101168.97;5062176;28;20028;-76
2023/04/03 01:04:32;;;;;;;19.05;11.07;;;;;;;3.59;69.57;101170.00;5060620;28;20483;-76
2023/04/03 01:07:02;;;;;;;18.45;10.15;;;;;;;3.65;68.92;101167.56;5062191;28;20032;-76
2023/04/03 01:09:28;;;;;;;18.58;11.48;;;;;;;3.74;69.33;101166.50;5061896;28;20529;-76
2023/04/03 01:12:00;;;;;;;18.73;10.93;;;;;;;3.71;68.71;101166.84;5062187;28;20024;-76
2023/04/03 01:14:26;;;;;;;18.08;10.07;;;;;;;3.66;69.93;101174.66;5042672;28;20926;-75
2023/04/03 01:16:54;;;;;;;19.17;9.50;;;;;;;3.78;69.30;101170.50;5062011;28;20040;-76
2023/04/03 01:19:22;;;;;;;11.88;7.72;;;;;;;3.82;69.23;101177.16;5061342;28;20793;-76
2023/04/03 01:22:04;;;;;;;13.55;8.23;;;;;;;3.93;68.72;101175.03;5061466;28;20650;-76
2023/04/03 01:24:33;;;;;;;15.50;9.05;;;;;;;3.94;69.37;101180.28;5061450;28;20044;-76
2023/04/03 01:27:02;;;;;;;13.23;8.15;;;;;;;4.02;69.20;101176.63;5061782;28;20047;-76
2023/04/03 01:29:27;;;;;;;14.32;7.95;;;;;;;4.05;68.77;101178.09;5061832;28;20033;-76
2023/04/03 01:31:58;;;;;;;13.23;8.38;;;;;;;4.11;69.24;101176.56;5061936;28;20063;-76
2023/04/03 01:34:24;;;;;;;10.80;6.90;;;;;;;4.19;69.38;101174.56;5061166;28;20090;-75
2023/04/03 01:36:50;;;;;;;11.52;7.65;;;;;;;4.27;68.20;101165.53;5061835;28;20787;-76
2023/04/03 01:39:16;;;;;;;11.43;7.07;;;;;;;4.32;68.48;101179.31;5061163;28;20040;-76
2023/04/03 01:41:41;;;;;;;12.10;6.43;;;;;;;4.40;67.81;101172.13;5061938;28;20533;-76
2023/04/03 01:44:06;;;;;;;12.13;8.03;;;;;;;4.43;68.01;101171.75;5060974;28;20504;-75
2023/04/03 01:46:32;;;;;;;10.50;6.68;;;;;;;4.37;67.97;101172.53;5061674;28;20269;-76
2023/04/03 01:48:57;;;;;;;13.57;7.22;;;;;;;4.47;67.88;101177.63;5061118;28;20028;-76
2023/04/03 01:51:23;;;;;;;14.75;7.57;;;;;;;4.44;68.16;101176.13;5061365;28;20033;-76
2023/04/03 01:53:48;;;;;;;9.63;5.95;;;;;;;4.39;68.02;101170.47;5060780;28;20417;-76
2023/04/03 01:56:14;;;;;;;11.52;6.93;;;;;;;4.42;68.05;101167.38;5061113;28;20123;-76
2023/04/03 01:58:39;;;;;;;12.50;6.75;;;;;;;4.50;67.63;101169.97;5061386;28;20115;-77
2023/04/03 02:01:05;;;;;;;11.55;6.57;;;;;;;4.54;67.11;101173.13;5061013;28;20123;-76
2023/04/03 02:03:30;;;;;;;13.02;6.07;;;;;;;4.56;67.41;101171.06;5060962;28;20486;-77
2023/04/03 02:05:56;;;;;;;10.32;5.22;;;;;;;4.40;67.76;101172.13;5060618;28;20028;-76
2023/04/03 02:08:21;;;;;;;9.20;5.60;;;;;;;4.51;67.22;101185.16;5060394;28;20093;-76
2023/04/03 02:10:48;;;;;;;11.00;4.20;;;;;;;4.44;67.30;101174.28;5060458;28;20036;-76
2023/04/03 02:13:14;;;;;;;10.38;4.60;;;;;;;4.44;67.20;101176.13;5060846;28;20700;-76
2023/04/03 02:15:39;;;;;;;9.60;5.22;;;;;;;4.52;66.83;101178.72;5059865;28;20126;-76
2023/04/03 02:18:05;;;;;;;8.88;5.53;;;;;;;4.58;67.05;101179.81;5060792;28;20044;-76
2023/04/03 02:20:30;;;;;;;8.07;4.63;;;;;;;4.65;66.48;101179.91;5060599;28;20111;-76
2023/04/03 02:22:56;;;;;;;7.55;3.75;;;;;;;4.67;66.00;101188.66;5061068;28;20425;-76
2023/04/03 02:25:21;;;;;;;6.40;4.10;;;;;;;4.53;66.14;101190.38;5060229;28;20040;-76
2023/04/03 02:27:47;;;;;;;9.73;5.30;;;;;;;4.39;66.45;101186.66;5060757;28;20261;-75
2023/04/03 02:30:12;;;;;;;13.15;4.90;;;;;;;4.40;66.22;101185.63;5060543;28;21162;-74
2023/04/03 02:32:38;;;;;;;10.32;4.25;;;;;;;4.52;66.91;101191.38;5060401;28;20047;-73
2023/04/03 02:35:03;;;;;;;9.95;5.22;;;;;;;4.53;66.49;101190.38;5060304;28;20029;-74
2023/04/03 02:37:29;;;;;;;10.40;5.82;;;;;;;4.46;66.24;101195.69;5060372;28;20089;-74
2023/04/03 02:39:55;;;;;;;14.68;7.20;;;;;;;4.43;66.44;101196.06;5061178;28;20028;-74
2023/04/03 02:42:20;;;;;;;20.58;9.70;;;;;;;4.42;66.48;101195.22;5061129;28;20037;-74
2023/04/03 02:44:46;;;;;;;20.00;9.27;;;;;;;4.41;66.43;101198.13;5060253;28;20067;-74
2023/04/03 02:47:11;;;;;;;14.88;6.63;;;;;;;4.41;65.72;101198.13;5060232;28;20032;-74
2023/04/03 02:49:36;;;;;;;18.85;4.90;;;;;;;4.39;66.81;101197.47;5060998;28;20209;-73
2023/04/03 02:52:02;;;;;;;11.37;4.20;;;;;;;4.24;66.33;101198.31;5061667;28;20060;-74
2023/04/03 02:54:30;;;;;;;7.70;3.00;;;;;;;4.10;66.77;101202.69;5060293;28;20312;-74
2023/04/03 02:56:55;;;;;;;10.25;3.28;;;;;;;4.05;67.42;101199.69;5060672;28;20025;-74
2023/04/03 02:59:20;;;;;;;17.13;3.05;;;;;;;4.20;66.95;101202.41;5060255;28;20078;-74
2023/04/03 03:01:46;;;;;;;6.77;3.20;;;;;;;4.20;66.84;101202.41;5060760;28;20037;-74
2023/04/03 03:04:11;;;;;;;9.23;3.40;;;;;;;4.40;66.36;101193.72;5059412;28;20257;-74
2023/04/03 03:06:36;;;;;;;15.25;3.33;;;;;;;4.48;66.03;101201.72;5060483;28;20569;-73
2023/04/03 03:09:03;;;;;;;4.65;2.05;;;;;;;4.41;66.31;101198.13;5059779;28;20028;-73
2023/04/03 03:11:28;;;;;;;6.32;2.25;;;;;;;4.47;65.83;101199.22;5060505;28;20680;-73
2023/04/03 03:13:54;;;;;;;6.15;2.13;;;;;;;4.42;65.57;101197.94;5060422;28;20119;-74
2023/04/03 03:16:19;;;;;;;8.35;2.70;;;;;;;4.13;65.88;101196.09;5060473;28;20413;-73
2023/04/03 03:18:45;;;;;;;6.45;2.30;;;;;;;4.09;66.16;101192.91;5060366;28;20032;-74
2023/04/03 03:21:10;;;;;;;11.13;2.40;;;;;;;4.19;65.71;101200.75;5060135;28;20063;-74
2023/04/03 03:23:36;;;;;;;4.47;1.98;;;;;;;4.26;65.89;101201.66;5060537;28;20037;-73
2023/04/03 03:26:07;;;;;;;6.40;2.65;;;;;;;4.43;65.11;101206.88;5061572;28;20533;-73
2023/04/03 03:28:33;;;;;;;8.05;2.03;;;;;;;4.37;65.21;101207.63;5064685;28;20060;-74
2023/04/03 03:30:59;;;;;;;4.60;1.60;;;;;;;4.24;65.32;101209.13;5063741;28;20058;-74
2023/04/03 03:33:25;;;;;;;9.40;2.42;;;;;;;4.38;65.09;101195.78;5063968;28;20029;-73
2023/04/03 03:35:51;;;;;;;6.38;1.95;;;;;;;4.31;65.29;101204.63;5063313;28;20429;-73
2023/04/03 03:38:16;;;;;;;6.25;2.70;;;;;;;4.25;65.50;101194.56;5063566;28;20036;-73
2023/04/03 03:40:42;;;;;;;5.53;2.80;;;;;;;4.24;64.67;101203.72;5064122;28;20036;-74
2023/04/03 03:43:07;;;;;;;7.60;1.83;;;;;;;4.09;65.35;101203.72;5063880;28;20581;-74
2023/04/03 03:45:32;;;;;;;9.35;2.92;;;;;;;3.89;65.27;101211.50;5063297;28;20040;-73
2023/04/03 03:47:58;;;;;;;8.35;2.22;;;;;;;3.47;67.60;101206.50;5063425;28;20371;-73
2023/04/03 03:50:23;;;;;;;5.28;2.05;;;;;;;3.80;66.56;101206.22;5063804;28;20028;-74
2023/04/03 03:52:48;;;;;;;8.55;1.92;;;;;;;3.96;66.71;101198.97;5063381;28;20147;-74
2023/04/03 03:55:13;;;;;;;3.07;1.60;;;;;;;4.09;65.57;101207.25;5062461;28;20045;-74
2023/04/03 03:57:39;;;;;;;3.55;1.73;;;;;;;4.22;65.46;101200.38;5063661;28;20340;-75
2023/04/03 04:00:06;;;;;;;4.68;1.50;;;;;;;4.24;64.62;101203.72;5063638;28;20020;-74
2023/04/03 04:02:32;;;;;;;5.63;2.25;;;;;;;4.05;64.64;101203.25;5063260;28;20036;-73
2023/04/03 04:04:57;;;;;;;7.68;1.73;;;;;;;3.95;64.97;101213.47;5062634;28;20039;-74
2023/04/03 04:07:22;;;;;;;4.37;1.97;;;;;;;4.00;65.87;101205.69;5063222;28;20492;-74
2023/04/03 04:09:48;;;;;;;11.00;2.77;;;;;;;3.98;64.80;101207.72;5063066;28;20277;-75
2023/04/03 04:12:13;;;;;;;7.55;2.00;;;;;;;3.77;65.56;101219.22;5062852;28;20354;-74
2023/04/03 04:14:38;;;;;;;8.82;2.20;;;;;;;3.66;66.16;101217.81;5063036;28;20036;-74
2023/04/03 04:17:03;;;;;;;5.90;1.73;;;;;;;3.78;65.74;101210.97;5062993;28;20085;-74
2023/04/03 04:19:29;;;;;;;7.43;2.30;;;;;;;4.04;65.10;101212.38;5062989;28;20063;-74
2023/04/03 04:21:54;;;;;;;6.00;2.97;;;;;;;3.79;65.29;101218.03;5062833;28;20078;-74
2023/04/03 04:24:19;;;;;;;9.60;1.73;;;;;;;3.91;65.20;101222.97;5062421;28;20261;-74
2023/04/03 04:26:44;;;;;;;11.48;2.25;;;;;;;3.94;64.93;101226.16;5063481;28;20288;-74
2023/04/03 04:29:10;;;;;;;7.13;1.88;;;;;;;3.74;65.13;101220.44;5062730;28;20046;-74
2023/04/03 04:31:36;;;;;;;5.60;2.90;;;;;;;3.74;65.74;101226.66;5062999;28;20652;-74
2023/04/03 04:34:01;;;;;;;8.77;2.15;;;;;;;3.73;65.98;101229.53;5062341;28;20397;-74
2023/04/03 04:36:26;;;;;;;10.75;3.70;;;;;;;3.91;65.14;101225.66;5062655;28;20024;-74
2023/04/03 04:38:52;;;;;;;4.33;1.73;;;;;;;4.01;64.79;101225.41;5062616;28;20032;-74
2023/04/03 04:41:22;;;;;;;5.63;2.22;;;;;;;4.01;64.23;101231.63;5062623;28;20674;-74
2023/04/03 04:43:47;;;;;;;7.30;2.60;;;;;;;4.06;64.85;101228.38;5061808;28;20466;-72
2023/04/03 04:46:12;;;;;;;9.13;2.60;;;;;;;3.95;64.59;101232.38;5062403;28;20039;-73
2023/04/03 04:48:37;;;;;;;22.23;3.28;;;;;;;3.97;65.35;101230.31;5062051;28;20804;-73
2023/04/03 04:51:03;;;;;;;3.45;1.67;;;;;;;3.98;64.68;101237.41;5062426;28;20063;-73
2023/04/03 04:53:28;;;;;;;6.35;2.67;;;;;;;3.83;65.27;101246.31;5062559;28;20063;-73
2023/04/03 04:55:54;;;;;;;10.65;3.28;;;;;;;3.96;65.24;101244.84;5061819;28;20036;-73
2023/04/03 04:58:19;;;;;;;8.85;3.13;;;;;;;3.97;64.65;101241.13;5062549;28;20727;-74
2023/04/03 05:00:45;;;;;;;6.15;2.50;;;;;;;3.93;64.69;101242.50;5062454;28;20036;-74
2023/04/03 05:03:10;;;;;;;11.85;4.07;;;;;;;3.96;65.10;101247.56;5062037;28;20032;-73
2023/04/03 05:05:35;;;;;;;6.72;2.50;;;;;;;3.94;64.81;101249.59;5061732;28;20058;-73
2023/04/03 05:08:02;;;;;;;4.45;2.40;;;;;;;3.94;64.66;101249.59;5061991;28;20032;-74
2023/04/03 05:10:27;;;;;;;8.63;2.42;;;;;;;3.68;65.17;101257.06;5061851;28;20044;-74
2023/04/03 05:12:53;;;;;;;5.05;2.00;;;;;;;3.77;65.16;101257.00;5062191;28;20082;-73
2023/04/03 05:15:18;;;;;;;5.68;2.42;;;;;;;3.90;65.36;101262.63;5061174;28;20041;-73
2023/04/03 05:17:43;;;;;;;7.18;3.15;;;;;;;3.85;64.76;101271.25;5061734;28;20033;-73
2023/04/03 05:20:09;;;;;;;4.53;1.77;;;;;;;3.90;64.65;101264.47;5061403;28;20085;-74
2023/04/03 05:22:35;;;;;;;11.60;2.75;;;;;;;3.94;64.64;101269.34;5061921;28;20257;-73
2023/04/03 05:25:00;;;;;;;5.15;2.35;;;;;;;3.78;65.37;101273.03;5061705;28;20055;-73
2023/04/03 05:27:27;;;;;;;8.63;2.53;;;;;;;3.91;64.95;101272.38;5061566;28;20037;-73
2023/04/03 05:29:53;;;;;;;9.23;2.38;;;;;;;4.03;65.17;101274.63;5061931;28;20170;-73
2023/04/03 05:32:18;;;;;;;7.20;3.03;;;;;;;3.97;65.09;101279.75;5042884;28;20041;-73
2023/04/03 05:34:43;;;;;;;4.95;1.98;;;;;;;3.89;65.27;101282.53;5061618;28;20064;-74
2023/04/03 05:37:09;;;;;;;7.80;3.27;;;;;;;3.90;65.00;101284.22;5061250;28;20573;-73
2023/04/03 05:39:35;;;;;;;7.85;2.80;;;;;;;3.93;64.98;101288.38;5044093;28;20293;-73
2023/04/03 05:42:00;;;;;;;5.47;2.45;;;;;;;4.04;64.95;101290.66;5061500;28;20398;-73
2023/04/03 05:44:25;;;;;;;11.30;3.15;;;;;;;4.14;64.17;101292.25;5042935;28;20041;-73
2023/04/03 05:46:51;;;;;;;7.43;4.05;;;;;;;3.97;64.34;101295.09;5061608;28;20032;-74
2023/04/03 05:49:16;;;;;;;7.65;2.10;;;;;;;3.71;65.89;101299.03;5060235;28;20036;-73
2023/04/03 05:51:41;;;;;;;8.60;2.25;;;;;;;3.98;64.19;101302.19;5061563;28;20528;-73
2023/04/03 05:54:13;;;;;;;6.40;2.65;;;;;;;4.05;64.44;101308.53;5060565;28;20040;-73
2023/04/03 05:56:39;;;;;;;8.55;2.67;;;;;;;3.91;65.26;101309.31;5061623;28;20042;-73
2023/04/03 05:59:04;;;;;;;7.47;3.13;;;;;;;3.99;64.56;101308.44;5061365;28;20949;-74
2023/04/03 06:01:29;;;;;;;9.13;3.22;;;;;;;3.83;65.51;101312.94;5061124;28;20379;-74
2023/04/03 06:03:55;;;;;;;8.23;4.55;;;;;;;3.99;65.00;101309.25;5060687;28;20464;-73
2023/04/03 06:06:21;;;;;;;6.72;4.18;;;;;;;4.02;65.02;101311.59;5060473;28;21215;-75
2023/04/03 06:08:47;;;;;;;9.55;4.78;;;;;;;4.10;64.52;101318.78;5060704;28;20032;-76
2023/04/03 06:11:12;;;;;;;9.05;3.40;;;;;;;4.17;64.63;101317.00;5059902;28;21179;-75
2023/04/03 06:13:38;;;;;;;10.05;3.92;;;;;;;4.09;64.68;101319.78;5060874;28;20044;-75
2023/04/03 06:16:04;;;;;;;10.05;4.38;;;;;;;3.82;65.17;101322.88;5059912;28;20718;-74
2023/04/03 06:18:29;;;;;;;17.13;3.50;;;;;;;3.96;65.72;101318.56;5060840;28;20961;-76
2023/04/03 06:20:55;;;;;;;11.48;4.40;;;;;;;4.06;65.78;101328.25;5061060;28;20043;-77
2023/04/03 06:23:20;;;;;;;33.15;6.07;;;;;;;4.09;65.45;101325.19;5061254;28;20063;-78
2023/04/03 06:25:45;;;;;;;9.38;3.78;;;;;;;4.02;65.55;101330.50;5059201;28;20045;-77
2023/04/03 06:28:11;;;;;;;7.28;3.33;;;;;;;3.84;65.45;101328.13;5061154;28;20429;-78
2023/04/03 06:30:37;;;;;;;6.93;3.28;;;;;;;3.38;66.57;101325.22;5061033;28;20113;-75
2023/04/03 06:33:03;;;;;;;9.32;3.65;;;;;;;3.82;65.47;101325.56;5060829;28;20066;-76
2023/04/03 06:35:30;;;;;;;8.40;2.92;;;;;;;3.42;66.08;101320.31;5060635;28;20182;-74
2023/04/03 06:37:55;;;;;;;6.72;2.40;;;;;;;3.53;65.83;101321.75;5061282;28;20068;-75
2023/04/03 06:40:23;;;;;;;5.80;2.88;;;;;;;3.26;67.20;101324.78;5061254;28;20052;-75
2023/04/03 06:42:49;;;;;;;7.07;2.72;;;;;;;3.72;65.76;101322.31;5061093;28;20033;-75
2023/04/03 06:45:15;;;;;;;6.75;2.22;;;;;;;3.44;66.42;101322.84;5060695;28;20039;-75
2023/04/03 06:47:40;;;;;;;8.52;2.65;;;;;;;3.69;66.40;101319.97;5060908;28;20064;-76
2023/04/03 06:50:07;;;;;;;4.53;2.70;;;;;;;3.64;66.05;101328.56;5060472;28;20517;-76
2023/04/03 06:52:32;;;;;;;8.18;2.30;;;;;;;3.68;65.55;101324.50;5060401;28;20678;-75
2023/04/03 06:54:59;;;;;;;5.78;2.13;;;;;;;3.73;64.47;101319.41;5060429;28;20098;-75
2023/04/03 06:57:24;;;;;;;4.55;1.58;;;;;;;3.88;64.45;101323.19;5060471;28;20556;-75
2023/04/03 06:59:50;;;;;;;8.20;1.98;;;;;;;3.69;64.99;101328.03;5060936;28;20025;-75
2023/04/03 07:02:15;;;;;;;5.20;2.30;;;;;;;3.87;65.17;101329.59;5063665;28;20071;-74
2023/04/03 07:04:40;;;;;;;9.07;3.53;;;;;;;4.12;63.91;101337.47;5064256;28;20040;-75
2023/04/03 07:07:05;;;;;;;6.00;1.83;;;;;;;4.13;63.36;101331.06;5064518;28;20035;-75
2023/04/03 07:09:31;;;;;;;6.00;2.38;;;;;;;4.13;63.89;101337.28;5064378;28;20403;-75
2023/04/03 07:11:56;;;;;;;6.03;1.85;;;;;;;4.08;64.02;101337.00;5063050;28;20166;-75
2023/04/03 07:14:21;;;;;;;13.95;2.95;;;;;;;4.18;64.12;101334.91;5062704;28;20249;-75
2023/04/03 07:16:47;;;;;;;5.40;2.42;;;;;;;4.11;63.23;101341.22;5064266;28;20068;-75
2023/04/03 07:19:12;;;;;;;5.90;2.55;;;;;;;4.16;63.37;101342.34;5063792;28;20040;-75
2023/04/03 07:21:38;;;;;;;8.57;3.45;;;;;;;4.30;63.14;101347.94;5064875;28;20028;-75
2023/04/03 07:24:03;;;;;;;7.88;3.33;;;;;;;4.22;63.14;101348.03;5063834;28;20071;-75
2023/04/03 07:26:28;;;;;;;7.05;2.47;;;;;;;4.43;63.01;101347.31;5064412;28;20036;-75
2023/04/03 07:28:54;;;;;;;4.35;1.77;;;;;;;4.41;63.16;101360.16;5064044;28;20111;-75
2023/04/03 07:31:19;;;;;;;8.10;2.70;;;;;;;4.58;62.76;101351.91;5063408;28;20064;-75
2023/04/03 07:33:45;;;;;;;6.40;2.40;;;;;;;4.43;60.95;101348.13;5063582;28;20131;-75
2023/04/03 07:36:15;;;;;;;6.05;2.63;;;;;;;4.50;62.30;101353.66;5062971;28;20040;-76
2023/04/03 07:38:41;;;;;;;8.38;3.33;;;;;;;4.62;62.06;101358.59;5064726;28;20675;-76
2023/04/03 07:41:06;;;;;;;9.40;3.20;;;;;;;4.59;61.87;101358.97;5063957;28;20124;-77
2023/04/03 07:43:32;;;;;;;7.15;2.42;;;;;;;4.30;62.48;101364.16;5064796;28;20125;-74
2023/04/03 07:45:58;;;;;;;3.40;2.13;;;;;;;4.23;62.56;101365.91;5063656;28;20028;-77
2023/04/03 07:48:25;;;;;;;6.05;2.33;;;;;;;3.98;63.98;101366.97;5063763;28;20521;-76
2023/04/03 07:50:51;;;;;;;5.70;1.83;;;;;;;3.82;64.20;101376.03;5064127;28;20035;-77
2023/04/03 07:53:16;;;;;;;5.47;1.95;;;;;;;4.11;63.62;101365.50;5063878;28;20021;-76
2023/04/03 07:55:45;;;;;;;6.80;1.88;;;;;;;4.27;62.86;101361.81;5063325;28;20048;-77
2023/04/03 07:58:12;;;;;;;6.20;1.42;;;;;;;4.40;62.95;101367.44;5044715;28;20107;-77
2023/04/03 08:00:38;;;;;;;6.78;1.55;;;;;;;4.38;62.90;101371.31;5062787;28;20028;-76
2023/04/03 08:03:04;;;;;;;10.95;1.98;;;;;;;4.77;61.80;101364.00;5062788;28;20646;-76
2023/04/03 08:05:29;;;;;;;5.00;1.60;;;;;;;4.66;61.48;101368.84;5063001;28;20052;-75
2023/04/03 08:07:54;;;;;;;3.63;1.88;;;;;;;4.54;61.33;101373.03;5063530;28;20040;-76
2023/04/03 08:10:20;;;;;;;4.90;2.25;;;;;;;4.42;61.87;101367.25;5063338;28;20080;-75
2023/04/03 08:12:48;;;;;;;5.93;1.38;;;;;;;4.34;61.79;101376.25;5061856;28;20504;-75
2023/04/03 08:15:13;;;;;;;4.57;1.80;;;;;;;4.58;61.02;101370.81;5061865;28;20048;-75
2023/04/03 08:17:38;;;;;;;8.52;2.05;;;;;;;4.65;61.35;101371.75;5062446;28;20036;-75
2023/04/03 08:20:06;;;;;;;6.18;2.38;;;;;;;4.72;61.16;101372.66;5062892;28;20074;-75
2023/04/03 08:22:32;;;;;;;4.32;1.40;;;;;;;4.99;60.26;101367.63;5063754;28;20043;-75
2023/04/03 08:24:57;;;;;;;6.35;1.88;;;;;;;4.75;60.51;101371.47;5063575;28;20041;-75
2023/04/03 08:27:22;;;;;;;7.53;2.57;;;;;;;4.95;59.82;101376.28;5063345;28;20067;-75
2023/04/03 08:29:48;;;;;;;8.32;1.88;;;;;;;4.74;60.25;101369.78;5063890;28;20315;-75
2023/04/03 08:32:13;;;;;;;5.47;2.33;;;;;;;4.76;59.35;101367.75;5062990;28;20074;-75
2023/04/03 08:34:39;;;;;;;3.50;1.50;;;;;;;4.73;58.28;101366.25;5063124;28;20255;-75
2023/04/03 08:37:05;;;;;;;5.68;1.50;;;;;;;4.81;59.27;101369.88;5063398;28;20663;-75
2023/04/03 08:39:30;;;;;;;4.13;1.88;;;;;;;4.86;57.47;101367.47;5063794;28;20039;-75
2023/04/03 08:41:59;;;;;;;5.13;0.90;;;;;;;4.84;56.38;101369.50;5063707;28;20489;-75
2023/04/03 08:44:46;;;;;;;4.43;2.17;;;;;;;5.08;57.63;101362.13;5062811;28;20673;-75
2023/04/03 08:47:24;;;;;;;3.20;1.17;;;;;;;4.91;56.16;101373.13;5044672;28;20036;-75
2023/04/03 08:50:13;;;;;;;3.03;1.35;;;;;;;5.08;57.62;101372.94;5063808;28;20032;-75
2023/04/03 08:52:41;;;;;;;2.80;1.33;;;;;;;4.93;55.04;101387.31;5063060;28;21234;-75
2023/04/03 08:55:22;;;;;;;3.90;2.15;;;;;;;5.04;55.65;101386.00;5062727;28;20036;-76
2023/04/03 08:57:49;;;;;;;5.00;1.48;;;;;;;4.99;56.10;101381.16;5063052;28;20061;-75
2023/04/03 09:00:20;;;;;;;5.93;1.50;;;;;;;5.22;55.21;101382.91;5062725;28;20132;-75
2023/04/03 09:02:54;;;;;;;3.42;1.38;;;;;;;5.19;55.43;101388.66;5044655;28;20756;-75
2023/04/03 09:05:47;;;;;;;2.53;0.88;;;;;;;5.46;54.51;101389.00;5062183;28;20105;-75
2023/04/03 09:08:23;;;;;;;3.88;1.20;;;;;;;5.59;54.60;101377.47;5062639;28;20267;-75
2023/04/03 09:10:51;;;;;;;10.88;1.58;;;;;;;5.67;55.53;101373.84;5063050;28;20052;-75
2023/04/03 09:13:34;;;;;;;3.60;1.67;;;;;;;5.91;55.54;101379.88;5062580;28;20058;-75
2023/04/03 09:16:04;;;;;;;7.07;1.63;;;;;;;6.01;55.41;101379.56;5061612;28;20063;-75
2023/04/03 09:18:32;;;;;;;4.13;1.67;;;;;;;5.91;55.38;101373.63;5061641;28;20376;-76
2023/04/03 09:21:24;;;;;;;4.13;1.20;;;;;;;6.15;53.69;101364.28;5061704;28;20024;-75
2023/04/03 09:23:52;;;;;;;4.93;1.42;;;;;;;5.90;53.18;101367.38;5061072;28;20031;-75
2023/04/03 09:26:26;;;;;;;4.85;0.90;;;;;;;6.10;54.12;101371.34;5061856;28;20068;-76
2023/04/03 09:28:55;;;;;;;8.00;1.63;;;;;;;6.13;52.98;101382.59;5062225;28;20032;-76
2023/04/03 09:31:30;;;;;;;4.45;1.65;;;;;;;6.22;52.65;101372.47;5060825;28;20028;-75
2023/04/03 09:34:03;;;;;;;4.68;1.30;;;;;;;6.23;53.20;101386.84;5060542;28;20029;-76
2023/04/03 09:36:43;;;;;;;4.10;1.15;;;;;;;6.41;52.13;101372.81;5061202;28;20729;-76
2023/04/03 09:39:16;;;;;;;4.18;1.25;;;;;;;6.55;52.73;101360.19;5061187;28;20108;-76
2023/04/03 09:41:43;;;;;;;5.43;1.42;;;;;;;6.75;52.32;101368.44;5042846;28;20124;-76
2023/04/03 09:44:24;;;;;;;3.53;1.50;;;;;;;6.72;51.28;101368.00;5060736;28;20028;-76
2023/04/03 09:46:50;;;;;;;2.38;0.90;;;;;;;6.71;50.25;101363.63;5061611;28;20044;-76
2023/04/03 09:49:16;;;;;;;4.80;1.00;;;;;;;7.14;50.33;101359.88;5061035;28;20032;-76
2023/04/03 09:51:43;;;;;;;3.20;0.88;;;;;;;7.06;49.06;101357.34;5061381;28;20056;-76
2023/04/03 09:54:38;;;;;;;3.78;1.20;;;;;;;7.13;48.75;101347.38;5060702;28;20113;-76
2023/04/03 09:57:13;;;;;;;;;;;;;;;7.00;47.94;101358.97;5061583;28;20123;-76
2023/04/03 09:59:46;;;;;;;;;;;;;;;7.08;47.34;101349.81;5056877;28;20369;-76
2023/04/03 10:02:20;;;;;;;3.45;1.15;;;;;;;7.11;48.37;101339.44;5060576;28;19927;-76
2023/04/03 10:04:45;;;;;;;4.78;1.20;;;;;;;7.38;48.01;101345.97;5060862;28;21182;-77
2023/04/03 10:07:36;;;;;;;5.07;1.73;;;;;;;7.67;47.95;101341.22;5060849;28;20040;-76
2023/04/03 10:10:19;;;;;;;8.07;1.48;;;;;;;7.62;49.82;101343.75;5060659;28;21100;-77
2023/04/03 10:12:45;;;;;;;4.15;1.58;;;;;;;7.79;49.62;101339.56;5061328;28;20145;-76
2023/04/03 10:15:15;;;;;;;3.38;1.48;;;;;;;7.83;48.69;101353.59;5060397;28;20561;-76
2023/04/03 10:17:57;;;;;;;3.80;1.05;;;;;;;7.78;47.20;101343.34;5060620;28;20551;-76
2023/04/03 10:20:46;;;;;;;2.83;0.73;;;;;;;7.94;47.22;101338.53;5061042;28;20056;-77
2023/04/03 10:23:26;;;;;;;3.60;1.50;;;;;;;8.20;47.74;101336.88;5061138;28;20028;-77
2023/04/03 10:26:10;;;;;;;3.70;1.45;;;;;;;8.45;48.32;101341.66;5060556;28;20044;-77
2023/04/03 10:28:54;;;;;;;9.40;2.17;;;;;;;8.35;47.23;101342.09;5061407;28;20029;-77
2023/04/03 10:31:57;;;;;;;4.10;1.02;;;;;;;8.62;46.04;101331.19;5061089;28;20047;-77
2023/04/03 10:34:30;;;;;;;4.35;1.40;;;;;;;8.61;46.82;101334.13;5032185;28;20468;-76
2023/04/03 10:37:20;;;;;;;3.08;1.08;;;;;;;8.70;46.21;101326.56;5060977;28;20044;-76
2023/04/03 10:39:53;;;;;;;4.32;1.25;;;;;;;8.49;46.61;101329.31;5060949;28;20584;-76
2023/04/03 10:42:44;;;;;;;2.75;1.48;;;;;;;8.53;45.08;101322.41;5060735;28;20036;-76
2023/04/03 10:45:43;;;;;;;5.20;1.50;;;;;;;8.80;45.85;101326.97;5060382;28;20032;-77
2023/04/03 10:48:25;;;;;;;3.53;1.15;;;;;;;8.95;44.75;101323.97;5060471;28;20037;-77
2023/04/03 10:51:16;;;;;;;8.68;1.25;;;;;;;8.95;45.00;101323.97;5061045;28;20032;-76
2023/04/03 10:53:57;;;;;;;2.67;0.90;;;;;;;8.90;43.11;101323.78;5060470;28;20669;-76
2023/04/03 10:56:35;;;;;;;13.27;1.42;;;;;;;9.03;43.89;101313.91;5060697;28;20036;-77
2023/04/03 10:59:17;;;;;;;3.88;0.70;;;;;;;9.31;43.23;101315.44;5060634;28;20036;-76
2023/04/03 11:01:47;;;;;;;4.60;1.63;;;;;;;9.39;43.55;101300.72;5042971;28;20025;-77
2023/04/03 11:04:16;;;;;;;4.05;0.80;;;;;;;9.72;43.66;101301.56;5059562;28;20592;-78
2023/04/03 11:06:48;;;;;;;3.28;0.90;;;;;;;9.44;42.35;101298.16;5060532;28;20485;-77
2023/04/03 11:09:36;;;;;;;7.93;1.38;;;;;;;9.53;40.44;101296.03;5060019;28;20053;-77
2023/04/03 11:12:10;;;;;;;3.67;1.02;;;;;;;9.48;41.67;101293.97;5060439;28;20370;-77
2023/04/03 11:14:37;;;;;;;8.30;1.77;;;;;;;9.57;41.59;101300.81;5060362;28;20033;-76
2023/04/03 11:17:13;;;;;;;3.22;0.93;;;;;;;9.62;40.77;101304.78;5060405;28;20119;-76
2023/04/03 11:19:53;;;;;;;5.18;0.75;;;;;;;9.65;40.19;101301.59;5060764;28;20039;-76
2023/04/03 11:22:32;;;;;;;2.30;0.90;;;;;;;9.73;38.52;101286.88;5060418;28;20032;-77
2023/04/03 11:25:10;;;;;;;1.52;0.70;;;;;;;9.64;39.55;101292.59;5060041;28;20158;-77
2023/04/03 11:27:43;;;;;;;8.50;1.90;;;;;;;9.84;38.32;101280.72;5060534;28;20063;-77
2023/04/03 11:30:23;;;;;;;3.92;1.50;;;;;;;9.73;39.37;101278.69;5060451;28;20044;-77
2023/04/03 11:33:17;;;;;;;5.13;1.10;;;;;;;10.02;39.46;101270.91;5060160;28;20067;-77
2023/04/03 11:35:45;;;;;;;2.27;0.80;;;;;;;9.83;38.39;101273.59;5059836;28;20102;-77
2023/04/03 11:38:19;;;;;;;2.17;0.63;;;;;;;10.07;38.95;101273.78;5060528;28;20063;-77